Time;durP1;ratioP1;P1;durP2;ratioP2;P2;SDS_P1;SDS_P2;PMS_P1;PMS_P2;Temp;Humidity;BMP_temperature;BMP_pressure;BME280_temperature;BME280_humidity;BME280_pressure;Samples;Min_cycle;Max_cycle;Signal;HPM_P1;HPM_P2
2022/09/28 00:00:56;;;;;;;6.10;3.80;;;;;;;8.51;81.87;98955.45;110868;1229;138186;-79
2022/09/28 00:03:21;;;;;;;7.90;3.90;;;;;;;8.42;81.86;98954.92;110938;1228;97618;-78
2022/09/28 00:05:46;;;;;;;5.40;3.30;;;;;;;8.36;82.06;98952.63;110801;1230;138783;-78
2022/09/28 00:08:12;;;;;;;10.90;4.10;;;;;;;8.32;82.08;98951.80;110953;1228;97871;-77
2022/09/28 00:10:38;;;;;;;10.60;4.30;;;;;;;8.26;82.11;98954.84;111087;1229;98069;-78
2022/09/28 00:13:04;;;;;;;6.10;3.60;;;;;;;8.19;82.13;98951.71;110790;1230;138942;-78
2022/09/28 00:15:29;;;;;;;6.00;4.10;;;;;;;8.11;82.23;98951.26;110944;1230;97612;-78
2022/09/28 00:17:54;;;;;;;7.30;3.80;;;;;;;8.06;82.21;98952.82;110889;1227;138706;-79
2022/09/28 00:20:21;;;;;;;10.60;4.00;;;;;;;8.00;82.36;98948.39;110996;1230;97708;-79
2022/09/28 00:22:46;;;;;;;7.90;4.40;;;;;;;7.95;82.46;98944.41;110957;1229;96938;-77
2022/09/28 00:25:11;;;;;;;12.10;4.60;;;;;;;7.92;82.51;98945.88;110854;1230;138051;-77
2022/09/28 00:27:36;;;;;;;8.20;4.40;;;;;;;7.88;82.46;98942.71;111028;1228;98786;-78
2022/09/28 00:30:03;;;;;;;7.80;4.80;;;;;;;7.86;82.58;98947.98;110936;1228;138135;-79
2022/09/28 00:32:28;;;;;;;7.00;3.90;;;;;;;7.83;82.55;98949.92;110986;1229;107645;-79
2022/09/28 00:34:54;;;;;;;6.80;3.60;;;;;;;7.80;82.54;98946.54;110861;1229;138450;-78
2022/09/28 00:37:19;;;;;;;5.20;3.60;;;;;;;7.76;82.50;98944.54;111138;1228;97685;-78
2022/09/28 00:39:46;;;;;;;9.10;4.30;;;;;;;7.72;82.62;98940.64;111049;1229;97630;-78
2022/09/28 00:42:23;;;;;;;9.20;4.40;;;;;;;7.70;82.67;98941.64;110907;1228;138169;-78
2022/09/28 00:44:52;;;;;;;7.30;4.80;;;;;;;7.69;82.68;98939.09;110969;1228;97757;-77
2022/09/28 00:47:39;;;;;;;6.40;4.50;;;;;;;7.66;82.70;98937.33;110929;1229;139498;-76
2022/09/28 00:50:17;;;;;;;9.10;5.10;;;;;;;7.61;82.71;98934.73;110958;1229;111312;-78
2022/09/28 00:52:54;;;;;;;6.40;4.30;;;;;;;7.57;82.67;98933.71;110984;1229;100836;-77
2022/09/28 00:55:28;;;;;;;13.90;4.80;;;;;;;7.53;82.81;98933.80;110966;1229;107744;-77
2022/09/28 00:57:59;;;;;;;12.00;4.40;;;;;;;7.50;82.87;98934.48;110892;1228;97982;-77
2022/09/28 01:00:25;;;;;;;7.90;4.20;;;;;;;7.46;82.82;98932.38;110866;1229;138410;-77
2022/09/28 01:02:50;;;;;;;6.70;3.90;;;;;;;7.43;82.80;98935.42;110953;1229;97638;-77
2022/09/28 01:05:17;;;;;;;8.50;4.60;;;;;;;7.39;82.82;98935.66;110892;1229;138965;-78
2022/09/28 01:07:46;;;;;;;8.30;4.20;;;;;;;7.36;82.89;98936.92;110931;1229;97628;-77
2022/09/28 01:10:12;;;;;;;12.00;6.00;;;;;;;7.32;82.95;98938.20;110982;1228;98067;-76
2022/09/28 01:16:36;;;;;;;6.30;4.00;;;;;;;7.24;83.20;98937.94;110949;1229;99780;-82
2022/09/28 01:19:20;;;;;;;7.10;3.90;;;;;;;7.19;83.15;98933.23;110601;1230;138977;-78
2022/09/28 01:21:54;;;;;;;8.90;4.90;;;;;;;7.16;83.21;98929.67;110845;1229;96610;-78
2022/09/28 01:24:42;;;;;;;14.60;4.50;;;;;;;7.13;83.34;98926.85;110901;1228;139509;-78
2022/09/28 01:27:26;;;;;;;9.80;4.70;;;;;;;7.10;83.38;98928.46;110962;1228;112182;-77
2022/09/28 01:30:07;;;;;;;9.70;5.30;;;;;;;7.06;83.49;98924.21;110830;1229;138321;-77
2022/09/28 01:32:57;;;;;;;9.70;4.50;;;;;;;7.04;83.60;98928.24;110944;1229;108566;-77
2022/09/28 01:35:30;;;;;;;7.50;3.90;;;;;;;7.01;83.63;98925.20;110852;1228;139205;-76
2022/09/28 01:38:01;;;;;;;7.20;4.40;;;;;;;6.99;83.66;98929.92;110914;1230;96550;-77
2022/09/28 01:40:30;;;;;;;8.20;4.80;;;;;;;6.97;83.68;98927.24;111001;1229;111817;-76
2022/09/28 01:43:02;;;;;;;8.70;4.90;;;;;;;6.94;83.75;98925.96;110844;1229;138701;-78
2022/09/28 01:45:34;;;;;;;10.60;4.50;;;;;;;6.93;83.74;98930.46;110922;1229;107880;-77
2022/09/28 01:48:04;;;;;;;7.60;4.40;;;;;;;6.92;83.81;98929.63;110808;1229;139076;-78
2022/09/28 01:50:35;;;;;;;7.80;4.60;;;;;;;6.93;83.75;98933.50;110940;1230;96492;-76
2022/09/28 01:53:23;;;;;;;8.10;4.80;;;;;;;6.92;83.90;98933.73;110819;1230;138917;-76
2022/09/28 01:56:06;;;;;;;9.70;4.70;;;;;;;6.92;83.83;98930.55;110935;1230;99826;-79
2022/09/28 01:58:37;;;;;;;12.20;4.30;;;;;;;6.92;83.99;98928.59;110976;1229;107731;-77
2022/09/28 02:01:08;;;;;;;11.50;3.90;;;;;;;6.91;83.94;98926.70;110827;1230;138423;-77
2022/09/28 02:04:07;;;;;;;8.50;4.40;;;;;;;6.91;84.01;98929.14;110993;1229;96451;-79
2022/09/28 02:06:44;;;;;;;10.10;4.50;;;;;;;6.89;83.95;98935.83;110839;1228;138904;-78
2022/09/28 02:09:16;;;;;;;11.10;5.00;;;;;;;6.88;84.04;98940.51;110877;1230;99957;-78
2022/09/28 02:11:46;;;;;;;10.50;4.10;;;;;;;6.88;83.85;98942.46;110828;1229;138875;-78
2022/09/28 02:14:15;;;;;;;8.80;4.30;;;;;;;6.86;83.95;98945.81;110915;1230;97757;-77
2022/09/28 02:16:43;;;;;;;10.90;5.10;;;;;;;6.83;83.85;98948.98;110946;1229;97605;-78
2022/09/28 02:19:12;;;;;;;8.80;4.60;;;;;;;6.80;83.89;98945.93;110899;1230;138234;-77
2022/09/28 02:21:52;;;;;;;9.10;4.60;;;;;;;6.79;83.84;98958.25;111025;1229;99604;-76
2022/09/28 02:24:22;;;;;;;9.40;4.90;;;;;;;6.77;83.85;98960.82;110816;1229;138235;-78
2022/09/28 02:26:49;;;;;;;6.20;4.10;;;;;;;6.74;83.84;98966.30;110945;1230;97635;-77
2022/09/28 02:29:15;;;;;;;13.80;4.40;;;;;;;6.70;83.76;98966.35;110861;1230;138422;-78
2022/09/28 02:31:40;;;;;;;13.50;4.80;;;;;;;6.66;83.82;98965.89;110950;1230;97557;-77
2022/09/28 02:34:06;;;;;;;7.40;4.30;;;;;;;6.63;83.92;98966.55;110986;1229;97629;-78
2022/09/28 02:36:32;;;;;;;6.70;4.20;;;;;;;6.60;83.96;98965.31;110821;1230;138172;-77
2022/09/28 02:39:01;;;;;;;10.70;4.80;;;;;;;6.57;83.88;98966.35;110929;1229;97584;-78
2022/09/28 02:41:54;;;;;;;11.20;4.70;;;;;;;6.55;84.03;98967.37;110837;1229;140373;-79
2022/09/28 02:44:57;;;;;;;8.60;4.40;;;;;;;6.51;84.05;98959.43;110933;1229;101043;-78
2022/09/28 02:47:36;;;;;;;7.80;4.00;;;;;;;6.46;83.88;98957.70;110816;1229;140028;-78
2022/09/28 02:50:44;;;;;;;14.90;5.10;;;;;;;6.43;84.07;98959.65;110896;1228;97677;-76
2022/09/28 02:53:36;;;;;;;7.40;4.50;;;;;;;6.43;84.03;98963.39;110489;1230;141366;-78
2022/09/28 02:56:25;;;;;;;9.00;4.30;;;;;;;6.44;84.07;98962.81;110935;1230;111826;-78
2022/09/28 02:59:24;;;;;;;10.30;4.50;;;;;;;6.45;84.22;98962.73;110773;1229;138463;-77
2022/09/28 03:02:11;;;;;;;9.50;4.90;;;;;;;6.47;84.10;98959.27;110618;1230;106601;-78
2022/09/28 03:05:06;;;;;;;8.80;5.00;;;;;;;6.47;84.10;98955.55;110790;1230;97784;-78
2022/09/28 03:07:38;;;;;;;11.60;4.10;;;;;;;6.44;84.05;98954.96;110957;1230;97681;-79
2022/09/28 03:10:31;;;;;;;8.10;4.70;;;;;;;6.41;83.98;98951.10;110902;1229;110434;-79
2022/09/28 03:12:56;;;;;;;7.00;4.70;;;;;;;6.38;84.03;98949.83;110637;1230;142039;-79
2022/09/28 03:15:25;;;;;;;8.00;4.20;;;;;;;6.36;84.09;98945.16;110862;1232;97740;-79
2022/09/28 03:17:51;;;;;;;9.00;4.90;;;;;;;6.30;84.02;98941.73;110767;1229;139119;-79
2022/09/28 03:20:16;;;;;;;12.10;5.60;;;;;;;6.26;84.06;98935.73;110890;1230;97685;-77
2022/09/28 03:22:42;;;;;;;13.10;5.30;;;;;;;6.23;83.96;98934.16;110999;1230;96543;-78
2022/09/28 03:25:08;;;;;;;12.40;5.00;;;;;;;6.18;84.03;98930.83;110753;1230;138449;-77
2022/09/28 03:27:33;;;;;;;20.40;5.60;;;;;;;6.14;84.01;98931.59;111019;1230;97636;-79
2022/09/28 03:29:59;;;;;;;10.50;5.40;;;;;;;6.12;84.16;98932.54;110842;1230;138672;-76
2022/09/28 03:32:24;;;;;;;9.00;4.60;;;;;;;6.11;84.06;98937.39;110969;1230;97605;-77
2022/09/28 03:34:49;;;;;;;8.70;5.20;;;;;;;6.09;84.18;98935.19;110809;1230;138230;-77
2022/09/28 03:37:15;;;;;;;17.10;5.40;;;;;;;6.09;84.28;98939.45;110936;1229;97599;-77
2022/09/28 03:39:40;;;;;;;10.00;4.60;;;;;;;6.08;84.25;98934.36;110908;1229;97608;-79
2022/09/28 03:42:05;;;;;;;11.10;5.30;;;;;;;6.08;84.27;98937.23;110783;1230;139205;-78
2022/09/28 03:44:30;;;;;;;17.10;6.20;;;;;;;6.08;84.33;98941.13;110801;1230;97710;-77
2022/09/28 03:46:56;;;;;;;9.20;5.00;;;;;;;6.08;84.34;98942.90;110871;1229;138841;-76
2022/09/28 03:49:21;;;;;;;9.00;4.90;;;;;;;6.07;84.45;98939.91;110912;1228;97624;-78
2022/09/28 03:51:46;;;;;;;8.60;4.70;;;;;;;6.07;84.38;98935.14;110871;1230;97751;-79
2022/09/28 03:54:11;;;;;;;10.10;5.00;;;;;;;6.07;84.43;98934.96;110775;1230;138048;-78
2022/09/28 03:56:37;;;;;;;10.70;5.30;;;;;;;6.05;84.50;98936.48;110914;1230;97728;-77
2022/09/28 03:59:03;;;;;;;8.20;4.40;;;;;;;6.04;84.42;98939.20;110814;1230;138359;-77
2022/09/28 04:01:29;;;;;;;6.90;4.70;;;;;;;6.03;84.53;98935.19;110926;1230;97838;-76
2022/09/28 04:03:57;;;;;;;7.20;4.30;;;;;;;6.03;84.53;98931.30;110910;1230;97640;-78
2022/09/28 04:06:24;;;;;;;11.70;5.30;;;;;;;6.02;84.59;98934.17;110801;1230;138083;-78
2022/09/28 04:08:49;;;;;;;13.20;5.30;;;;;;;5.99;84.44;98931.65;110884;1229;98049;-78
2022/09/28 04:11:14;;;;;;;8.90;5.10;;;;;;;5.98;84.55;98932.41;110821;1230;138892;-79
2022/09/28 04:13:40;;;;;;;9.50;5.10;;;;;;;5.96;84.45;98934.65;110921;1230;97665;-79
2022/09/28 04:16:05;;;;;;;12.50;4.30;;;;;;;5.95;84.52;98936.85;110991;1230;97598;-79
2022/09/28 04:18:32;;;;;;;15.10;4.80;;;;;;;5.94;84.57;98937.43;110757;1230;138035;-77
2022/09/28 04:21:10;;;;;;;10.40;4.90;;;;;;;5.93;84.70;98935.71;110900;1230;97589;-78
2022/09/28 04:23:37;;;;;;;13.00;5.50;;;;;;;5.91;84.53;98935.96;110801;1230;139282;-78
2022/09/28 04:26:05;;;;;;;13.40;5.50;;;;;;;5.89;84.66;98934.30;110874;1229;97633;-78
2022/09/28 04:31:17;;;;;;;9.50;5.30;;;;;;;5.84;84.68;98943.02;110925;1228;108079;-79
2022/09/28 04:33:43;;;;;;;14.10;5.70;;;;;;;5.83;84.68;98943.80;110938;1230;97605;-79
2022/09/28 04:36:09;;;;;;;9.80;5.30;;;;;;;5.80;84.59;98942.33;110813;1230;138111;-78
2022/09/28 04:38:36;;;;;;;10.70;5.50;;;;;;;5.79;84.64;98944.52;111062;1229;97981;-77
2022/09/28 04:41:02;;;;;;;9.70;5.40;;;;;;;5.79;84.57;98937.80;110813;1230;138750;-78
2022/09/28 04:43:27;;;;;;;10.00;5.30;;;;;;;5.80;84.71;98940.41;110939;1229;97602;-79
2022/09/28 04:45:58;;;;;;;9.30;5.30;;;;;;;5.80;84.74;98935.59;110991;1229;97631;-77
2022/09/28 04:48:23;;;;;;;11.80;6.20;;;;;;;5.82;84.73;98935.86;110869;1230;138694;-79
2022/09/28 04:50:56;;;;;;;11.90;5.00;;;;;;;5.82;84.72;98934.45;110901;1229;97615;-79
2022/09/28 04:53:22;;;;;;;10.80;4.80;;;;;;;5.83;84.89;98933.31;110810;1230;138308;-78
2022/09/28 04:56:08;;;;;;;11.90;5.10;;;;;;;5.85;84.73;98934.66;110941;1229;97714;-79
2022/09/28 04:58:34;;;;;;;14.60;6.10;;;;;;;5.87;85.00;98935.95;110947;1229;111876;-78
2022/09/28 05:01:03;;;;;;;13.20;5.90;;;;;;;5.89;84.89;98932.71;110793;1229;139499;-78
2022/09/28 05:03:28;;;;;;;11.30;6.10;;;;;;;5.90;84.87;98930.52;110954;1229;97731;-77
2022/09/28 05:05:54;;;;;;;15.50;6.60;;;;;;;5.92;84.94;98930.46;110809;1228;138819;-79
2022/09/28 05:08:20;;;;;;;13.00;6.50;;;;;;;5.94;84.97;98930.88;111007;1230;98409;-79
2022/09/28 05:10:45;;;;;;;14.80;6.60;;;;;;;5.98;84.91;98928.89;110882;1229;97679;-77
2022/09/28 05:13:12;;;;;;;14.60;5.30;;;;;;;6.00;85.03;98927.88;110831;1230;138547;-79
2022/09/28 05:15:39;;;;;;;10.20;5.80;;;;;;;6.03;84.94;98927.35;110923;1230;97705;-78
2022/09/28 05:18:06;;;;;;;11.40;6.10;;;;;;;6.04;84.98;98924.11;110810;1230;138074;-78
2022/09/28 05:20:33;;;;;;;13.50;5.60;;;;;;;6.06;85.06;98918.00;110937;1230;97693;-77
2022/09/28 05:22:58;;;;;;;10.50;5.60;;;;;;;6.08;84.97;98916.30;110729;1230;140872;-78
2022/09/28 05:25:23;;;;;;;12.50;5.90;;;;;;;6.09;84.75;98920.34;111013;1230;97603;-78
2022/09/28 05:27:56;;;;;;;10.50;5.60;;;;;;;6.09;85.04;98923.88;110930;1230;97590;-80
2022/09/28 05:30:21;;;;;;;10.30;5.60;;;;;;;6.12;84.97;98926.54;110832;1230;139689;-78
2022/09/28 05:32:49;;;;;;;14.50;5.60;;;;;;;6.15;85.02;98923.17;110892;1230;97738;-80
2022/09/28 05:35:15;;;;;;;16.00;6.00;;;;;;;6.20;85.15;98924.71;110791;1230;138561;-79
2022/09/28 05:37:40;;;;;;;10.70;5.10;;;;;;;6.24;85.09;98926.06;110994;1230;97626;-78
2022/09/28 05:40:06;;;;;;;15.50;5.70;;;;;;;6.33;85.29;98930.77;110916;1230;98708;-77
2022/09/28 05:42:31;;;;;;;12.00;5.30;;;;;;;6.41;85.34;98932.11;110816;1230;138733;-78
2022/09/28 05:44:59;;;;;;;10.40;5.30;;;;;;;6.49;85.32;98933.79;110980;1230;97723;-78
2022/09/28 05:47:26;;;;;;;12.70;5.60;;;;;;;6.57;85.32;98930.16;110816;1230;140344;-77
2022/09/28 05:49:52;;;;;;;11.80;5.80;;;;;;;6.62;85.29;98925.62;110898;1230;97591;-79
2022/09/28 05:52:18;;;;;;;10.20;5.70;;;;;;;6.65;85.39;98926.36;110900;1230;96502;-79
2022/09/28 05:54:43;;;;;;;13.00;6.50;;;;;;;6.69;85.31;98923.83;110878;1230;138276;-78
2022/09/28 05:57:08;;;;;;;12.40;5.20;;;;;;;6.72;85.33;98923.28;110918;1230;98933;-78
2022/09/28 05:59:34;;;;;;;13.10;7.00;;;;;;;6.75;85.23;98928.24;110926;1230;138543;-78
2022/09/28 06:02:00;;;;;;;8.00;4.50;;;;;;;6.77;85.26;98926.77;110965;1230;97618;-77
2022/09/28 06:04:26;;;;;;;7.50;4.80;;;;;;;6.80;85.35;98923.91;111050;1230;97804;-78
2022/09/28 06:06:51;;;;;;;19.00;4.70;;;;;;;6.83;85.40;98925.52;111035;1230;138582;-76
2022/09/28 06:09:16;;;;;;;13.60;5.20;;;;;;;6.87;85.35;98919.12;111046;1229;96559;-77
2022/09/28 06:11:41;;;;;;;8.10;4.70;;;;;;;6.88;85.28;98917.98;110995;1230;138511;-76
2022/09/28 06:14:07;;;;;;;12.90;5.20;;;;;;;6.84;85.17;98913.73;110939;1230;96760;-77
2022/09/28 06:16:33;;;;;;;8.50;4.70;;;;;;;6.84;85.36;98915.33;111033;1230;97702;-77
2022/09/28 06:18:59;;;;;;;8.10;4.60;;;;;;;6.82;85.25;98916.31;111030;1229;138395;-79
2022/09/28 06:21:24;;;;;;;17.60;5.80;;;;;;;6.82;85.33;98912.77;111116;1229;96517;-78
2022/09/28 06:23:50;;;;;;;10.70;5.60;;;;;;;6.83;85.36;98919.29;110962;1230;138472;-78
2022/09/28 06:26:16;;;;;;;15.00;7.20;;;;;;;6.84;85.24;98918.18;111036;1230;97608;-75
2022/09/28 06:28:41;;;;;;;14.20;5.40;;;;;;;6.83;85.44;98913.60;111060;1228;97722;-77
2022/09/28 06:31:07;;;;;;;10.90;5.90;;;;;;;6.85;85.45;98914.22;111356;1229;138758;-78
2022/09/28 06:33:32;;;;;;;15.80;6.40;;;;;;;6.86;85.29;98910.27;111060;1230;97633;-77
2022/09/28 06:35:58;;;;;;;11.90;6.50;;;;;;;6.88;85.37;98911.58;110831;1229;139026;-76
2022/09/28 06:38:23;;;;;;;21.50;8.20;;;;;;;6.92;85.54;98907.27;111032;1230;96615;-77
2022/09/28 06:40:48;;;;;;;12.00;6.10;;;;;;;6.96;85.51;98911.13;110745;1229;138577;-77
2022/09/28 06:43:14;;;;;;;11.60;5.50;;;;;;;7.00;85.47;98912.33;110998;1230;99096;-77
2022/09/28 06:45:41;;;;;;;20.00;7.00;;;;;;;7.04;85.45;98914.94;110985;1229;97635;-76
2022/09/28 06:48:08;;;;;;;17.20;6.50;;;;;;;7.09;85.51;98913.95;110864;1229;138279;-78
2022/09/28 06:50:36;;;;;;;14.80;6.90;;;;;;;7.14;85.46;98915.27;110973;1229;97694;-77
2022/09/28 06:53:04;;;;;;;20.80;6.20;;;;;;;7.18;85.42;98914.48;110843;1230;138569;-75
2022/09/28 06:55:30;;;;;;;15.70;6.80;;;;;;;7.23;85.44;98915.63;110963;1230;108042;-78
2022/09/28 06:58:00;;;;;;;17.50;6.20;;;;;;;7.28;85.50;98916.23;110932;1230;97612;-78
2022/09/28 07:00:27;;;;;;;13.60;6.60;;;;;;;7.34;85.52;98920.67;110866;1230;140712;-78
2022/09/28 07:02:52;;;;;;;21.80;6.80;;;;;;;7.40;85.56;98920.30;110975;1230;99456;-78
2022/09/28 07:05:25;;;;;;;17.40;6.30;;;;;;;7.47;85.51;98920.07;110889;1229;139310;-76
2022/09/28 07:07:53;;;;;;;21.40;7.40;;;;;;;7.55;85.57;98920.52;110918;1230;97638;-78
2022/09/28 07:10:20;;;;;;;19.20;6.40;;;;;;;7.62;85.50;98920.14;110979;1230;97618;-80
2022/09/28 07:12:46;;;;;;;11.80;5.80;;;;;;;7.66;85.51;98917.88;110836;1229;139376;-79
2022/09/28 07:15:11;;;;;;;18.30;6.70;;;;;;;7.74;85.55;98921.73;110961;1228;96429;-80
2022/09/28 07:17:37;;;;;;;13.90;5.40;;;;;;;7.81;85.57;98921.58;110868;1229;138707;-77
2022/09/28 07:20:03;;;;;;;11.50;5.80;;;;;;;7.90;85.53;98920.34;110918;1230;97617;-79
2022/09/28 07:22:28;;;;;;;13.00;6.70;;;;;;;7.96;85.47;98920.49;110906;1230;97692;-78
2022/09/28 07:24:54;;;;;;;12.40;5.00;;;;;;;8.05;85.66;98916.58;110826;1230;138541;-78
2022/09/28 07:27:19;;;;;;;8.70;3.90;;;;;;;8.16;85.53;98913.95;110931;1230;97734;-78
2022/09/28 07:29:44;;;;;;;9.50;3.90;;;;;;;8.28;85.57;98911.66;110880;1230;138344;-78
2022/09/28 07:32:09;;;;;;;7.00;3.60;;;;;;;8.36;85.47;98910.80;110912;1230;97611;-80
2022/09/28 07:34:40;;;;;;;6.10;4.00;;;;;;;8.43;85.39;98905.17;110993;1230;97765;-77
2022/09/28 07:37:07;;;;;;;6.40;4.30;;;;;;;8.56;85.47;98903.33;110797;1230;138505;-76
2022/09/28 07:41:10;;;;;;;7.70;3.60;;;;;;;8.70;85.60;98905.98;110479;1230;111467;-77
2022/09/28 07:42:18;;;;;;;9.30;4.00;;;;;;;8.86;85.54;98906.98;110813;1230;138209;-77
2022/09/28 07:44:43;;;;;;;14.60;4.40;;;;;;;9.00;85.49;98909.09;110953;1230;97750;-76
2022/09/28 07:47:08;;;;;;;9.70;4.40;;;;;;;9.13;85.49;98905.88;110464;1230;138407;-67
2022/09/28 07:49:33;;;;;;;11.30;4.50;;;;;;;9.28;85.40;98905.96;110433;1230;97747;-69
2022/09/28 07:51:58;;;;;;;6.40;4.30;;;;;;;9.39;85.35;98904.17;110831;1229;97609;-73
2022/09/28 07:54:24;;;;;;;6.30;4.40;;;;;;;9.48;85.25;98901.44;110839;1230;138895;-73
2022/09/28 07:56:49;;;;;;;7.20;3.90;;;;;;;9.61;85.20;98898.98;111052;1230;97579;-76
2022/09/28 07:59:17;;;;;;;10.80;4.60;;;;;;;9.70;85.20;98897.80;110968;1230;138508;-75
2022/09/28 08:01:42;;;;;;;7.70;4.40;;;;;;;9.78;85.03;98899.79;111073;1230;107762;-72
2022/09/28 08:04:07;;;;;;;6.20;3.50;;;;;;;9.83;84.97;98904.95;111051;1230;97810;-76
2022/09/28 08:06:33;;;;;;;7.70;4.00;;;;;;;9.90;84.86;98908.20;110928;1230;138144;-76
2022/09/28 08:09:00;;;;;;;7.20;4.30;;;;;;;9.99;84.82;98904.91;110947;1229;97641;-77
2022/09/28 08:11:26;;;;;;;10.70;4.50;;;;;;;10.06;84.74;98901.20;110844;1229;139090;-74
2022/09/28 08:13:53;;;;;;;12.70;4.00;;;;;;;10.15;84.64;98907.61;110963;1228;98430;-76
2022/09/28 08:16:19;;;;;;;5.70;4.00;;;;;;;10.20;84.52;98913.66;110949;1229;112201;-75
2022/09/28 08:18:47;;;;;;;10.60;3.80;;;;;;;10.23;84.44;98912.08;110775;1230;138579;-76
2022/09/28 08:23:56;;;;;;;6.30;4.00;;;;;;;10.36;84.27;98916.45;110776;1230;139884;-76
2022/09/28 08:26:22;;;;;;;6.90;4.10;;;;;;;10.38;84.03;98914.39;110946;1230;97604;-75
2022/09/28 08:28:47;;;;;;;5.90;3.80;;;;;;;10.46;84.05;98913.98;110960;1230;97715;-75
2022/09/28 08:31:13;;;;;;;6.50;3.50;;;;;;;10.52;83.86;98911.58;110903;1229;97711;-74
2022/09/28 08:33:40;;;;;;;6.30;3.90;;;;;;;10.54;83.64;98909.10;111002;1230;98136;-76
2022/09/28 08:36:07;;;;;;;6.60;3.90;;;;;;;10.49;83.34;98908.42;110795;1230;138348;-77
2022/09/28 08:38:33;;;;;;;5.20;3.40;;;;;;;10.38;83.17;98902.16;110928;1230;97784;-76
2022/09/28 08:41:07;;;;;;;7.60;3.00;;;;;;;10.33;82.96;98902.25;110722;1230;138364;-73
2022/09/28 08:43:56;;;;;;;7.60;3.30;;;;;;;10.31;83.01;98900.92;110905;1229;97634;-76
2022/09/28 08:46:27;;;;;;;9.10;3.10;;;;;;;10.36;82.95;98899.85;110865;1229;112498;-76
2022/09/28 08:49:05;;;;;;;8.40;3.60;;;;;;;10.41;82.93;98899.30;110756;1230;138581;-77
2022/09/28 08:51:50;;;;;;;6.30;3.50;;;;;;;10.42;82.57;98901.80;110894;1230;107701;-78
2022/09/28 08:54:34;;;;;;;4.60;2.80;;;;;;;10.34;82.33;98898.91;110750;1229;139198;-77
2022/09/28 08:57:09;;;;;;;6.50;3.40;;;;;;;10.30;82.26;98896.58;110878;1230;98005;-77
2022/09/28 08:59:44;;;;;;;6.90;3.30;;;;;;;10.25;82.01;98895.14;110759;1229;139001;-77
2022/09/28 09:02:32;;;;;;;5.00;3.40;;;;;;;10.24;82.11;98892.55;110817;1230;99847;-78
2022/09/28 09:05:13;;;;;;;10.30;3.10;;;;;;;10.31;82.10;98892.38;110688;1230;138859;-74
2022/09/28 09:08:08;;;;;;;4.60;3.10;;;;;;;10.44;82.07;98889.48;110819;1230;97705;-76
2022/09/28 09:10:47;;;;;;;7.40;4.60;;;;;;;10.50;81.82;98884.55;110856;1230;97781;-76
2022/09/28 09:13:38;;;;;;;5.70;3.50;;;;;;;10.54;81.65;98881.92;110847;1230;111270;-77
2022/09/28 09:16:25;;;;;;;6.00;3.30;;;;;;;10.63;81.50;98874.67;110799;1230;100001;-79
2022/09/28 09:19:06;;;;;;;4.90;3.30;;;;;;;10.70;81.36;98875.63;110545;1230;138454;-78
2022/09/28 09:22:00;;;;;;;6.50;3.00;;;;;;;10.67;81.20;98873.29;110807;1230;97628;-80
2022/09/28 09:24:50;;;;;;;3.40;3.00;;;;;;;10.65;81.10;98873.27;110757;1229;138378;-79
2022/09/28 09:27:32;;;;;;;4.90;3.20;;;;;;;10.71;81.07;98868.59;110868;1229;112076;-79
2022/09/28 09:30:11;;;;;;;9.80;3.50;;;;;;;10.76;80.93;98867.14;110745;1230;139940;-79
2022/09/28 09:33:02;;;;;;;7.00;3.80;;;;;;;10.83;80.85;98868.98;110884;1229;107508;-81
2022/09/28 09:35:52;;;;;;;5.70;3.40;;;;;;;10.90;80.54;98870.38;110764;1230;140280;-79
2022/09/28 09:38:36;;;;;;;8.70;3.50;;;;;;;10.98;80.69;98870.02;110899;1230;97705;-79
2022/09/28 09:41:15;;;;;;;8.00;3.50;;;;;;;11.08;80.67;98866.25;110730;1229;139998;-80
2022/09/28 09:44:12;;;;;;;7.60;3.50;;;;;;;11.17;80.43;98863.23;110980;1230;99733;-75
2022/09/28 09:46:45;;;;;;;10.80;3.10;;;;;;;11.33;79.56;98862.88;110898;1230;108673;-79
2022/09/28 09:49:35;;;;;;;5.40;2.40;;;;;;;11.52;80.20;98858.13;110737;1230;138518;-79
2022/09/28 09:52:09;;;;;;;7.60;3.40;;;;;;;11.70;79.96;98857.59;112352;1230;96855;-79
2022/09/28 09:54:42;;;;;;;4.80;2.80;;;;;;;11.86;80.05;98853.55;112317;1230;138571;-80
2022/09/28 09:57:25;;;;;;;5.20;2.80;;;;;;;12.04;79.74;98854.29;111701;1229;98959;-75
2022/09/28 09:59:51;;;;;;;3.50;2.50;;;;;;;12.13;78.78;98854.33;110784;1229;140763;-78
2022/09/28 10:02:26;;;;;;;7.30;2.70;;;;;;;12.23;79.38;98856.02;110789;1230;99119;-74
2022/09/28 10:04:56;;;;;;;5.10;2.70;;;;;;;12.42;79.48;98854.55;110746;1230;139012;-75
2022/09/28 10:07:33;;;;;;;3.50;2.40;;;;;;;12.59;79.24;98854.04;110850;1229;111971;-74
2022/09/28 10:10:01;;;;;;;5.50;2.50;;;;;;;12.73;79.16;98852.77;110893;1230;99579;-75
2022/09/28 10:12:28;;;;;;;3.30;2.30;;;;;;;12.76;78.69;98850.39;110747;1230;138879;-76
2022/09/28 10:14:54;;;;;;;3.70;2.60;;;;;;;12.80;78.02;98848.94;110828;1230;97723;-77
2022/09/28 10:17:25;;;;;;;7.20;2.40;;;;;;;12.88;78.45;98850.08;110689;1230;140881;-76
2022/09/28 10:19:52;;;;;;;6.10;2.50;;;;;;;13.01;78.27;98849.55;110868;1230;111368;-77
2022/09/28 10:22:22;;;;;;;5.70;2.40;;;;;;;13.06;77.80;98851.43;110863;1230;97695;-77
2022/09/28 10:24:51;;;;;;;4.90;2.30;;;;;;;13.11;77.65;98848.02;110686;1230;138347;-75
2022/09/28 10:27:22;;;;;;;5.50;2.80;;;;;;;13.17;77.43;98841.94;110872;1230;97609;-75
2022/09/28 10:29:52;;;;;;;4.50;2.60;;;;;;;13.22;77.15;98844.59;110734;1230;139043;-76
2022/09/28 10:32:20;;;;;;;5.40;2.60;;;;;;;13.21;76.84;98844.98;110852;1230;111278;-77
2022/09/28 10:34:46;;;;;;;8.10;2.70;;;;;;;13.29;76.68;98840.21;110856;1230;100099;-77
2022/09/28 10:37:12;;;;;;;4.30;3.10;;;;;;;13.39;76.60;98837.30;110774;1230;137727;-78
2022/09/28 10:39:52;;;;;;;2.90;2.10;;;;;;;13.43;76.22;98833.85;110917;1230;96501;-78
2022/09/28 10:42:30;;;;;;;5.20;2.80;;;;;;;13.47;75.91;98831.77;110704;1230;138545;-75
2022/09/28 10:45:22;;;;;;;2.50;2.20;;;;;;;13.53;75.71;98831.61;110834;1230;100850;-77
2022/09/28 10:47:48;;;;;;;3.80;2.20;;;;;;;13.55;75.40;98834.61;110648;1230;138379;-74
2022/09/28 10:50:23;;;;;;;5.50;2.30;;;;;;;13.64;75.31;98836.02;110827;1230;97599;-77
2022/09/28 10:52:48;;;;;;;6.80;2.10;;;;;;;13.75;75.08;98830.99;110705;1229;137825;-75
2022/09/28 10:55:19;;;;;;;5.00;2.00;;;;;;;13.82;74.80;98829.99;110809;1230;97795;-76
2022/09/28 10:57:45;;;;;;;6.80;2.30;;;;;;;13.89;74.34;98833.31;110815;1230;99106;-78
2022/09/28 11:00:30;;;;;;;4.20;2.80;;;;;;;13.87;73.91;98833.13;110732;1230;139415;-78
2022/09/28 11:02:55;;;;;;;4.70;2.20;;;;;;;13.79;73.52;98829.74;110773;1230;97586;-76
2022/09/28 11:05:26;;;;;;;3.60;2.60;;;;;;;13.76;73.42;98827.43;110803;1230;137919;-78
2022/09/28 11:07:54;;;;;;;3.50;2.60;;;;;;;13.84;73.42;98827.27;110884;1230;112874;-76
2022/09/28 11:10:31;;;;;;;3.90;1.70;;;;;;;13.91;73.01;98825.80;110882;1229;98474;-78
2022/09/28 11:12:57;;;;;;;5.30;2.30;;;;;;;13.93;72.73;98831.41;110721;1229;138458;-78
2022/09/28 11:15:32;;;;;;;2.30;1.50;;;;;;;13.89;72.38;98832.08;110821;1230;97632;-76
2022/09/28 11:18:21;;;;;;;6.30;2.00;;;;;;;13.79;71.68;98834.17;110761;1230;139625;-77
2022/09/28 11:20:47;;;;;;;4.10;2.30;;;;;;;13.70;71.53;98831.22;110823;1229;110744;-77
2022/09/28 11:23:19;;;;;;;5.50;2.50;;;;;;;13.66;71.55;98832.27;110735;1229;137899;-76
2022/09/28 11:25:56;;;;;;;4.30;2.70;;;;;;;13.62;71.31;98837.78;110923;1229;107821;-76
2022/09/28 11:28:28;;;;;;;5.50;3.50;;;;;;;13.56;71.27;98834.70;110884;1229;97624;-77
2022/09/28 11:30:53;;;;;;;4.90;2.10;;;;;;;13.52;71.17;98834.93;110741;1230;137848;-77
2022/09/28 11:33:27;;;;;;;3.50;1.90;;;;;;;13.44;70.90;98835.98;110839;1230;96447;-77
2022/09/28 11:36:05;;;;;;;4.00;1.90;;;;;;;13.32;70.73;98835.86;110855;1230;137599;-77
2022/09/28 11:38:57;;;;;;;5.50;2.30;;;;;;;13.26;70.61;98832.96;110903;1230;106766;-77
2022/09/28 11:41:43;;;;;;;4.60;2.20;;;;;;;13.23;70.46;98834.84;110755;1229;137891;-76
2022/09/28 11:44:24;;;;;;;5.30;2.30;;;;;;;13.20;70.45;98837.92;110910;1229;97615;-76
2022/09/28 11:47:02;;;;;;;5.10;2.30;;;;;;;13.22;70.46;98838.52;110753;1230;142760;-76
2022/09/28 11:49:39;;;;;;;4.50;2.00;;;;;;;13.19;70.21;98836.73;110929;1229;100361;-75
2022/09/28 11:52:16;;;;;;;3.40;2.20;;;;;;;13.21;70.11;98836.42;110868;1229;107778;-75